Latest Weather Observations for Warburto Point

IDS60801

Issued at 11:01 am CST Friday 4 September 2015 (issued every 30 minutes, with the page automatically refreshed every 10 minutes)

About weather observations | Map of weather stations | Latest weather observations for SA | Other Formats
Station Details ID: 022053 Name: WARBURTO POINT Lat: -34.00 Lon: 137.53 Height: 1.0 m
Data from the previous 72 hours. | See also: Recent months for locations in South Australia
Date/Time
CST
Temp
°C
App
Temp
°C
Dew
Point
Rel
Hum
%
Delta-T
°C
Wind Press
QNH
hPa
Press
MSL
hPa
Rain
since 9 am
mm
Dir
 
Spd
km/h
Gust
km/h
Spd
kts
Gust
kts
04/11:00am - - - - - SSE 9 17 5 9 - - -
04/10:30am - - - - - SE 7 11 4 6 - - -
04/10:00am - - - - - ESE 9 13 5 7 - - -
04/09:30am - - - - - SE 11 15 6 8 - - -
04/09:00am - - - - - ESE 11 17 6 9 - - -
04/08:30am - - - - - S 17 20 9 11 - - -
04/08:00am - - - - - S 17 20 9 11 - - -
04/07:30am - - - - - S 19 24 10 13 - - -
04/07:00am - - - - - S 15 19 8 10 - - -
04/06:30am - - - - - SSE 17 20 9 11 - - -
04/06:00am - - - - - SSE 11 13 6 7 - - -
04/05:30am - - - - - SSE 13 19 7 10 - - -
04/05:00am - - - - - SSE 15 19 8 10 - - -
04/04:30am - - - - - SSE 13 17 7 9 - - -
04/04:00am - - - - - SE 11 13 6 7 - - -
04/03:30am - - - - - SSE 17 22 9 12 - - -
04/03:00am - - - - - S 19 24 10 13 - - -
04/02:30am - - - - - SSE 24 32 13 17 - - -
04/02:00am - - - - - SE 13 19 7 10 - - -
04/01:30am - - - - - ESE 11 13 6 7 - - -
04/01:00am - - - - - SSE 13 19 7 10 - - -
04/12:30am - - - - - SSE 15 19 8 10 - - -
04/12:00am - - - - - SSE 17 20 9 11 - - -
 
Date/Time
CST
Temp
°C
App
Temp
°C
Dew
Point
Rel
Hum
%
Delta-T
°C
Wind Press
QNH
hPa
Press
MSL
hPa
Rain
since 9 am
mm
Dir
 
Spd
km/h
Gust
km/h
Spd
kts
Gust
kts
03/11:30pm - - - - - S 17 20 9 11 - - -
03/11:00pm - - - - - S 19 24 10 13 - - -
03/10:30pm - - - - - SSE 19 24 10 13 - - -
03/10:00pm - - - - - SSE 17 22 9 12 - - -
03/09:30pm - - - - - SSE 17 24 9 13 - - -
03/09:00pm - - - - - SSE 17 20 9 11 - - -
03/08:30pm - - - - - SSE 20 28 11 15 - - -
03/08:00pm - - - - - S 24 30 13 16 - - -
03/07:30pm - - - - - S 22 28 12 15 - - -
03/07:00pm - - - - - SSE 20 26 11 14 - - -
03/06:30pm - - - - - S 24 32 13 17 - - -
03/06:00pm - - - - - SSW 22 28 12 15 - - -
03/05:30pm - - - - - SSW 26 32 14 17 - - -
03/05:00pm - - - - - SSW 26 33 14 18 - - -
03/04:30pm - - - - - SSW 26 33 14 18 - - -
03/04:00pm - - - - - SSW 28 37 15 20 - - -
03/03:30pm - - - - - SSW 30 35 16 19 - - -
03/03:00pm - - - - - SSW 30 35 16 19 - - -
03/02:30pm - - - - - SSW 28 33 15 18 - - -
03/02:00pm - - - - - SSW 28 33 15 18 - - -
03/01:30pm - - - - - SSW 30 35 16 19 - - -
03/01:00pm - - - - - SSW 26 33 14 18 - - -
03/12:30pm - - - - - SSW 30 35 16 19 - - -
03/12:00pm - - - - - SSW 33 41 18 22 - - -
03/11:30am - - - - - SSW 30 35 16 19 - - -
03/11:00am - - - - - SSW 28 33 15 18 - - -
03/10:30am - - - - - SSW 28 37 15 20 - - -
03/10:00am - - - - - S 30 35 16 19 - - -
03/09:30am - - - - - S 33 41 18 22 - - -
03/09:00am - - - - - SSW 26 32 14 17 - - -
03/08:30am - - - - - SSW 26 33 14 18 - - -
03/08:00am - - - - - SSW 30 37 16 20 - - -
03/07:30am - - - - - SSW 26 32 14 17 - - -
03/07:00am - - - - - SSW 30 35 16 19 - - -
03/06:30am - - - - - SSW 28 35 15 19 - - -
03/06:00am - - - - - SSW 28 35 15 19 - - -
03/05:30am - - - - - SW 20 26 11 14 - - -
03/05:00am - - - - - SSW 26 32 14 17 - - -
03/04:30am - - - - - SW 22 30 12 16 - - -
03/04:00am - - - - - SSW 24 30 13 16 - - -
03/03:30am - - - - - SSW 28 35 15 19 - - -
03/03:00am - - - - - SSW 30 35 16 19 - - -
03/02:30am - - - - - SW 32 39 17 21 - - -
03/02:00am - - - - - SSW 32 39 17 21 - - -
03/01:30am - - - - - SSW 30 35 16 19 - - -
03/01:00am - - - - - SSW 32 39 17 21 - - -
03/12:30am - - - - - SSW 30 37 16 20 - - -
03/12:00am - - - - - SSW 33 41 18 22 - - -
 
Date/Time
CST
Temp
°C
App
Temp
°C
Dew
Point
Rel
Hum
%
Delta-T
°C
Wind Press
QNH
hPa
Press
MSL
hPa
Rain
since 9 am
mm
Dir
 
Spd
km/h
Gust
km/h
Spd
kts
Gust
kts
02/11:30pm - - - - - SSW 33 43 18 23 - - -
02/11:00pm - - - - - SSW 37 48 20 26 - - -
02/10:30pm - - - - - SSW 35 46 19 25 - - -
02/10:00pm - - - - - SSW 39 52 21 28 - - -
02/09:30pm - - - - - SSW 44 57 24 31 - - -
02/09:00pm - - - - - SSW 43 56 23 30 - - -
02/08:30pm - - - - - SSW 41 57 22 31 - - -
02/08:00pm - - - - - SSW 44 56 24 30 - - -
02/07:30pm - - - - - SSW 46 59 25 32 - - -
02/07:00pm - - - - - SSW 44 59 24 32 - - -
02/06:30pm - - - - - SW 50 63 27 34 - - -
02/06:02pm - - - - - SW 52 72 28 39 - - -
02/06:00pm - - - - - SW 54 67 29 36 - - -
02/05:30pm - - - - - SW 54 70 29 38 - - -
02/05:15pm - - - - - SW 48 69 26 37 - - -
02/05:00pm - - - - - WSW 50 67 27 36 - - -
02/04:31pm - - - - - WSW 46 67 25 36 - - -
02/04:30pm - - - - - WSW 46 57 25 31 - - -
02/04:06pm - - - - - WSW 50 69 27 37 - - -
02/04:00pm - - - - - W 52 69 28 37 - - -
02/03:51pm - - - - - W 41 59 22 32 - - -
02/03:30pm - - - - - W 43 57 23 31 - - -
02/03:08pm - - - - - W 39 57 21 31 - - -
02/03:00pm - - - - - WNW 39 52 21 28 - - -
02/02:52pm - - - - - WNW 33 52 18 28 - - -
02/02:30pm - - - - - NW 46 61 25 33 - - -
02/02:25pm - - - - - NW 52 61 28 33 - - -
02/02:13pm - - - - - NNW 39 57 21 31 - - -
02/02:00pm - - - - - N 43 52 23 28 - - -
02/01:30pm - - - - - NNW 46 57 25 31 - - -
02/01:00pm - - - - - NNW 39 54 21 29 - - -
02/12:30pm - - - - - NNW 43 56 23 30 - - -
02/12:00pm - - - - - NNW 43 52 23 28 - - -
02/11:30am - - - - - NNW 39 52 21 28 - - -
02/11:00am - - - - - NNW 43 54 23 29 - - -
02/10:30am - - - - - NNW 44 56 24 30 - - -
02/10:00am - - - - - NNW 44 56 24 30 - - -
02/09:30am - - - - - NNW 46 57 25 31 - - -
02/09:00am - - - - - NNW 41 52 22 28 - - -
02/08:30am - - - - - NNW 44 54 24 29 - - -
02/08:00am - - - - - NNW 41 52 22 28 - - -
02/07:30am - - - - - NNW 43 52 23 28 - - -
02/07:00am - - - - - N 37 44 20 24 - - -
02/06:30am - - - - - NNW 43 54 23 29 - - -
02/06:00am - - - - - NNW 41 50 22 27 - - -
02/05:30am - - - - - NNW 39 46 21 25 - - -
02/05:00am - - - - - N 35 41 19 22 - - -
02/04:30am - - - - - N 35 43 19 23 - - -
02/04:00am - - - - - N 37 44 20 24 - - -
02/03:30am - - - - - N 33 43 18 23 - - -
02/03:00am - - - - - N 33 41 18 22 - - -
02/02:30am - - - - - N 30 35 16 19 - - -
02/02:00am - - - - - NNW 30 35 16 19 - - -
02/01:30am - - - - - NNW 30 35 16 19 - - -
02/01:00am - - - - - NNW 30 35 16 19 - - -
02/12:30am - - - - - N 33 39 18 21 - - -
02/12:00am - - - - - N 44 57 24 31 - - -
 
Date/Time
CST
Temp
°C
App
Temp
°C
Dew
Point
Rel
Hum
%
Delta-T
°C
Wind Press
QNH
hPa
Press
MSL
hPa
Rain
since 9 am
mm
Dir
 
Spd
km/h
Gust
km/h
Spd
kts
Gust
kts
01/11:30pm - - - - - N 39 46 21 25 - - -
01/11:00pm - - - - - N 41 52 22 28 - - -
01/10:30pm - - - - - NNE 35 41 19 22 - - -
01/10:00pm - - - - - N 33 41 18 22 - - -
01/09:30pm - - - - - N 35 50 19 27 - - -
01/09:10pm - - - - - N 32 50 17 27 - - -
01/09:00pm - - - - - NNE 20 26 11 14 - - -
01/08:30pm - - - - - NNE 30 35 16 19 - - -
01/08:00pm - - - - - NE 28 35 15 19 - - -
01/07:30pm - - - - - NE 24 30 13 16 - - -
01/07:00pm - - - - - NE 28 33 15 18 - - -
01/06:30pm - - - - - NNE 33 43 18 23 - - -
01/06:00pm - - - - - NNE 37 52 20 28 - - -
01/05:30pm - - - - - NNE 35 44 19 24 - - -
01/05:00pm - - - - - NNE 43 52 23 28 - - -
01/04:30pm - - - - - NNE 41 52 22 28 - - -
01/04:00pm - - - - - NNE 46 54 25 29 - - -
01/03:30pm - - - - - NNE 44 56 24 30 - - -
01/03:00pm - - - - - NNE 46 57 25 31 - - -
01/02:30pm - - - - - NNE 41 48 22 26 - - -
01/02:00pm - - - - - NNE 37 44 20 24 - - -
01/01:30pm - - - - - NNE 30 35 16 19 - - -
01/01:00pm - - - - - NNE 28 33 15 18 - - -
01/12:30pm - - - - - N 28 35 15 19 - - -
01/12:00pm - - - - - NNE 30 37 16 20 - - -
01/11:30am - - - - - NNE 30 35 16 19 - - -

Other Formats:

Comma delimited format used in spreadsheet applications
http://www.bom.gov.au/fwo/IDS60801/IDS60801.94666.axf

JavaScript Object Notation format (JSON) in row-major order
http://www.bom.gov.au/fwo/IDS60801/IDS60801.94666.json